CBAPRS
Automatic Packet Reporting System for everyone...
Symbol
PositionLatitude: 52.129°
Longitude: 5.01883333333°
Speed0km/h
Course
AltitudeN/A
CommentRichard - QTH Maarssen JO22md - Info via www.NL13797.nl - WRLP -
Status
PathNL1RFR>APWW10 via ,TCPIP*,qAC,EIFEL-CB
Last heardMon, 21 Oct 2019 13:51:18 +0000

Time is in UTC

  • Mon, 21 Oct 2019 22:40:56 +0000: NL1RFR>APWW10,,TCPIP*,qAC,EIFEL-CB:@234056h5207.74N/00501.13EyRichard - QTH Maarssen JO22md - Info via www.NL13797.nl - WRLP -
  • Mon, 21 Oct 2019 22:09:33 +0000: NL1RFR>APWW10,,TCPIP*,qAC,EIFEL-CB:@230933h5207.74N/00501.13EyRichard - QTH Maarssen JO22md - Info via www.NL13797.nl - WRLP -
  • Mon, 21 Oct 2019 21:39:33 +0000: NL1RFR>APWW10,,TCPIP*,qAC,EIFEL-CB:@223933h5207.74N/00501.13EyRichard - QTH Maarssen JO22md - Info via www.NL13797.nl - WRLP -
  • Mon, 21 Oct 2019 21:09:33 +0000: NL1RFR>APWW10,,TCPIP*,qAC,EIFEL-CB:@220933h5207.74N/00501.13EyRichard - QTH Maarssen JO22md - Info via www.NL13797.nl - WRLP -
  • Mon, 21 Oct 2019 13:51:18 +0000: NL1RFR>APWW10,,TCPIP*,qAC,EIFEL-CB:@145118h5207.74N/00501.13EyRichard - QTH Maarssen JO22md - Info via www.NL13797.nl - WRLP -
  • Mon, 21 Oct 2019 13:21:18 +0000: NL1RFR>APWW10,,TCPIP*,qAC,EIFEL-CB:@142118h5207.74N/00501.13EyRichard - QTH Maarssen JO22md - Info via www.NL13797.nl - WRLP -
  • Mon, 21 Oct 2019 12:51:18 +0000: NL1RFR>APWW10,,TCPIP*,qAC,EIFEL-CB:@135118h5207.74N/00501.13EyRichard - QTH Maarssen JO22md - Info via www.NL13797.nl - WRLP -
  • Mon, 21 Oct 2019 11:48:14 +0000: NL1RFR>APWW10,,TCPIP*,qAC,EIFEL-CB:@124814h5207.74N/00501.13EyRichard - QTH Maarssen JO22md - Info via www.NL13797.nl - WRLP -
  • Mon, 21 Oct 2019 11:18:14 +0000: NL1RFR>APWW10,,TCPIP*,qAC,EIFEL-CB:@121814h5207.74N/00501.13EyRichard - QTH Maarssen JO22md - Info via www.NL13797.nl - WRLP -
  • Mon, 21 Oct 2019 10:18:14 +0000: NL1RFR>APWW10,,TCPIP*,qAC,EIFEL-CB:@111814h5207.74N/00501.13EyRichard - QTH Maarssen JO22md - Info via www.NL13797.nl - WRLP -
  • Mon, 21 Oct 2019 09:48:14 +0000: NL1RFR>APWW10,,TCPIP*,qAC,EIFEL-CB:@104814h5207.74N/00501.13EyRichard - QTH Maarssen JO22md - Info via www.NL13797.nl - WRLP -
  • Mon, 21 Oct 2019 09:18:14 +0000: NL1RFR>APWW10,,TCPIP*,qAC,EIFEL-CB:@101814h5207.74N/00501.13EyRichard - QTH Maarssen JO22md - Info via www.NL13797.nl - WRLP -
  • Mon, 21 Oct 2019 08:48:14 +0000: NL1RFR>APWW10,,TCPIP*,qAC,EIFEL-CB:@094814h5207.74N/00501.13EyRichard - QTH Maarssen JO22md - Info via www.NL13797.nl - WRLP -
  • Mon, 21 Oct 2019 08:18:14 +0000: NL1RFR>APWW10,,TCPIP*,qAC,EIFEL-CB:@091814h5207.74N/00501.13EyRichard - QTH Maarssen JO22md - Info via www.NL13797.nl - WRLP -
  • Mon, 21 Oct 2019 07:48:14 +0000: NL1RFR>APWW10,,TCPIP*,qAC,EIFEL-CB:@084814h5207.74N/00501.13EyRichard - QTH Maarssen JO22md - Info via www.NL13797.nl - WRLP -
  • Mon, 21 Oct 2019 07:18:14 +0000: NL1RFR>APWW10,,TCPIP*,qAC,EIFEL-CB:@081814h5207.74N/00501.13EyRichard - QTH Maarssen JO22md - Info via www.NL13797.nl - WRLP -
  • Mon, 21 Oct 2019 06:48:14 +0000: NL1RFR>APWW10,,TCPIP*,qAC,EIFEL-CB:@074814h5207.74N/00501.13EyRichard - QTH Maarssen JO22md - Info via www.NL13797.nl - WRLP -
  • Mon, 21 Oct 2019 06:18:14 +0000: NL1RFR>APWW10,,TCPIP*,qAC,EIFEL-CB:@071814h5207.74N/00501.13EyRichard - QTH Maarssen JO22md - Info via www.NL13797.nl - WRLP -
  • Mon, 21 Oct 2019 05:48:14 +0000: NL1RFR>APWW10,,TCPIP*,qAC,EIFEL-CB:@064814h5207.74N/00501.13EyRichard - QTH Maarssen JO22md - Info via www.NL13797.nl - WRLP -
  • Mon, 21 Oct 2019 05:18:14 +0000: NL1RFR>APWW10,,TCPIP*,qAC,EIFEL-CB:@061814h5207.74N/00501.13EyRichard - QTH Maarssen JO22md - Info via www.NL13797.nl - WRLP -
  • Mon, 21 Oct 2019 04:48:14 +0000: NL1RFR>APWW10,,TCPIP*,qAC,EIFEL-CB:@054814h5207.74N/00501.13EyRichard - QTH Maarssen JO22md - Info via www.NL13797.nl - WRLP -
  • Mon, 21 Oct 2019 04:18:14 +0000: NL1RFR>APWW10,,TCPIP*,qAC,EIFEL-CB:@051814h5207.74N/00501.13EyRichard - QTH Maarssen JO22md - Info via www.NL13797.nl - WRLP -
  • Mon, 21 Oct 2019 03:48:14 +0000: NL1RFR>APWW10,,TCPIP*,qAC,EIFEL-CB:@044814h5207.74N/00501.13EyRichard - QTH Maarssen JO22md - Info via www.NL13797.nl - WRLP -
  • Mon, 21 Oct 2019 03:18:14 +0000: NL1RFR>APWW10,,TCPIP*,qAC,EIFEL-CB:@041814h5207.74N/00501.13EyRichard - QTH Maarssen JO22md - Info via www.NL13797.nl - WRLP -
  • Mon, 21 Oct 2019 02:48:14 +0000: NL1RFR>APWW10,,TCPIP*,qAC,EIFEL-CB:@034814h5207.74N/00501.13EyRichard - QTH Maarssen JO22md - Info via www.NL13797.nl - WRLP -
  • Mon, 21 Oct 2019 02:18:14 +0000: NL1RFR>APWW10,,TCPIP*,qAC,EIFEL-CB:@031814h5207.74N/00501.13EyRichard - QTH Maarssen JO22md - Info via www.NL13797.nl - WRLP -
  • Mon, 21 Oct 2019 01:48:14 +0000: NL1RFR>APWW10,,TCPIP*,qAC,EIFEL-CB:@024814h5207.74N/00501.13EyRichard - QTH Maarssen JO22md - Info via www.NL13797.nl - WRLP -
  • Mon, 21 Oct 2019 01:18:14 +0000: NL1RFR>APWW10,,TCPIP*,qAC,EIFEL-CB:@021814h5207.74N/00501.13EyRichard - QTH Maarssen JO22md - Info via www.NL13797.nl - WRLP -
  • Mon, 21 Oct 2019 00:48:14 +0000: NL1RFR>APWW10,,TCPIP*,qAC,EIFEL-CB:@014814h5207.74N/00501.13EyRichard - QTH Maarssen JO22md - Info via www.NL13797.nl - WRLP -
  • Mon, 21 Oct 2019 00:18:14 +0000: NL1RFR>APWW10,,TCPIP*,qAC,EIFEL-CB:@011814h5207.74N/00501.13EyRichard - QTH Maarssen JO22md - Info via www.NL13797.nl - WRLP -
  • Sun, 20 Oct 2019 23:48:14 +0000: NL1RFR>APWW10,,TCPIP*,qAC,EIFEL-CB:@004814h5207.74N/00501.13EyRichard - QTH Maarssen JO22md - Info via www.NL13797.nl - WRLP -
  • Sun, 20 Oct 2019 22:59:45 +0000: NL1RFR>APWW10,,TCPIP*,qAC,EIFEL-CB:@235945h5207.74N/00501.13EyRichard - QTH Maarssen JO22md - Info via www.NL13797.nl - WRLP -
  • Sun, 20 Oct 2019 22:38:13 +0000: NL1RFR>APWW10,,TCPIP*,qAC,EIFEL-CB:@233813h5207.74N/00501.13EyRichard - QTH Maarssen JO22md - Info via www.NL13797.nl - WRLP -
  • Sun, 20 Oct 2019 22:08:13 +0000: NL1RFR>APWW10,,TCPIP*,qAC,EIFEL-CB:@230813h5207.74N/00501.13EyRichard - QTH Maarssen JO22md - Info via www.NL13797.nl - WRLP -
  • Sun, 20 Oct 2019 21:38:13 +0000: NL1RFR>APWW10,,TCPIP*,qAC,EIFEL-CB:@223813h5207.74N/00501.13EyRichard - QTH Maarssen JO22md - Info via www.NL13797.nl - WRLP -
  • Sun, 20 Oct 2019 21:08:13 +0000: NL1RFR>APWW10,,TCPIP*,qAC,EIFEL-CB:@220813h5207.74N/00501.13EyRichard - QTH Maarssen JO22md - Info via www.NL13797.nl - WRLP -
  • Sun, 20 Oct 2019 20:39:33 +0000: NL1RFR>APWW10,,TCPIP*,qAC,EIFEL-CB:@213933h5207.74N/00501.13EyRichard - QTH Maarssen JO22md - Info via www.NL13797.nl - WRLP -
  • Sun, 20 Oct 2019 20:09:33 +0000: NL1RFR>APWW10,,TCPIP*,qAC,EIFEL-CB:@210933h5207.74N/00501.13EyRichard - QTH Maarssen JO22md - Info via www.NL13797.nl - WRLP -
  • Sun, 20 Oct 2019 19:39:32 +0000: NL1RFR>APWW10,,TCPIP*,qAC,EIFEL-CB:@203932h5207.74N/00501.13EyRichard - QTH Maarssen JO22md - Info via www.NL13797.nl - WRLP -
  • Sun, 20 Oct 2019 19:09:33 +0000: NL1RFR>APWW10,,TCPIP*,qAC,EIFEL-CB:@200933h5207.74N/00501.13EyRichard - QTH Maarssen JO22md - Info via www.NL13797.nl - WRLP -
  • Sun, 20 Oct 2019 18:39:32 +0000: NL1RFR>APWW10,,TCPIP*,qAC,EIFEL-CB:@193932h5207.74N/00501.13EyRichard - QTH Maarssen JO22md - Info via www.NL13797.nl - WRLP -
  • Sun, 20 Oct 2019 18:09:32 +0000: NL1RFR>APWW10,,TCPIP*,qAC,EIFEL-CB:@190932h5207.74N/00501.13EyRichard - QTH Maarssen JO22md - Info via www.NL13797.nl - WRLP -
  • Sun, 20 Oct 2019 17:39:32 +0000: NL1RFR>APWW10,,TCPIP*,qAC,EIFEL-CB:@183932h5207.74N/00501.13EyRichard - QTH Maarssen JO22md - Info via www.NL13797.nl - WRLP -
  • Sun, 20 Oct 2019 17:09:32 +0000: NL1RFR>APWW10,,TCPIP*,qAC,EIFEL-CB:@180932h5207.74N/00501.13EyRichard - QTH Maarssen JO22md - Info via www.NL13797.nl - WRLP -
  • Sun, 20 Oct 2019 16:39:32 +0000: NL1RFR>APWW10,,TCPIP*,qAC,EIFEL-CB:@173932h5207.74N/00501.13EyRichard - QTH Maarssen JO22md - Info via www.NL13797.nl - WRLP -
  • Sun, 20 Oct 2019 16:09:32 +0000: NL1RFR>APWW10,,TCPIP*,qAC,EIFEL-CB:@170932h5207.74N/00501.13EyRichard - QTH Maarssen JO22md - Info via www.NL13797.nl - WRLP -
  • Sun, 20 Oct 2019 15:39:32 +0000: NL1RFR>APWW10,,TCPIP*,qAC,EIFEL-CB:@163932h5207.74N/00501.13EyRichard - QTH Maarssen JO22md - Info via www.NL13797.nl - WRLP -
  • Sun, 20 Oct 2019 15:09:31 +0000: NL1RFR>APWW10,,TCPIP*,qAC,EIFEL-CB:@160931h5207.74N/00501.13EyRichard - QTH Maarssen JO22md - Info via www.NL13797.nl - WRLP -
  • Sun, 20 Oct 2019 14:39:31 +0000: NL1RFR>APWW10,,TCPIP*,qAC,EIFEL-CB:@153931h5207.74N/00501.13EyRichard - QTH Maarssen JO22md - Info via www.NL13797.nl - WRLP -
  • Sun, 20 Oct 2019 14:09:31 +0000: NL1RFR>APWW10,,TCPIP*,qAC,EIFEL-CB:@150931h5207.74N/00501.13EyRichard - QTH Maarssen JO22md - Info via www.NL13797.nl - WRLP -
  • Sun, 20 Oct 2019 13:39:31 +0000: NL1RFR>APWW10,,TCPIP*,qAC,EIFEL-CB:@143931h5207.74N/00501.13EyRichard - QTH Maarssen JO22md - Info via www.NL13797.nl - WRLP -
  • Sun, 20 Oct 2019 13:09:31 +0000: NL1RFR>APWW10,,TCPIP*,qAC,EIFEL-CB:@140931h5207.74N/00501.13EyRichard - QTH Maarssen JO22md - Info via www.NL13797.nl - WRLP -
  • Sun, 20 Oct 2019 12:39:31 +0000: NL1RFR>APWW10,,TCPIP*,qAC,EIFEL-CB:@133931h5207.74N/00501.13EyRichard - QTH Maarssen JO22md - Info via www.NL13797.nl - WRLP -
  • Sun, 20 Oct 2019 10:39:31 +0000: NL1RFR>APWW10,,TCPIP*,qAC,EIFEL-CB:@113931h5207.74N/00501.13EyRichard - QTH Maarssen JO22md - Info via www.NL13797.nl - WRLP -
  • Sun, 20 Oct 2019 10:21:56 +0000: NL1RFR>APWW10,,TCPIP*,qAC,EIFEL-CB:@112156h5207.74N/00501.13EyRichard - QTH Maarssen JO22md - Info via www.NL13797.nl - WRLP -
  • Sun, 20 Oct 2019 10:16:17 +0000: NL1RFR>APWW10,,TCPIP*,qAC,EIFEL-CB:@111617h5207.74N/00501.13EyRichard - QTH Maarssen JO22md - Info via www.NL13797.nl - WRLP -
  • Sun, 20 Oct 2019 09:46:17 +0000: NL1RFR>APWW10,,TCPIP*,qAC,EIFEL-CB:@104617h5207.74N/00501.13EyRichard - QTH Maarssen JO22md - Info via www.NL13797.nl - WRLP -
  • Sun, 20 Oct 2019 09:16:17 +0000: NL1RFR>APWW10,,TCPIP*,qAC,EIFEL-CB:@101617h5207.74N/00501.13EyRichard - QTH Maarssen JO22md - Info via www.NL13797.nl - WRLP -
  • Sun, 20 Oct 2019 08:46:17 +0000: NL1RFR>APWW10,,TCPIP*,qAC,EIFEL-CB:@094617h5207.74N/00501.13EyRichard - QTH Maarssen JO22md - Info via www.NL13797.nl - WRLP -
  • Sun, 20 Oct 2019 08:16:17 +0000: NL1RFR>APWW10,,TCPIP*,qAC,EIFEL-CB:@091617h5207.74N/00501.13EyRichard - QTH Maarssen JO22md - Info via www.NL13797.nl - WRLP -
  • Sun, 20 Oct 2019 07:46:17 +0000: NL1RFR>APWW10,,TCPIP*,qAC,EIFEL-CB:@084617h5207.74N/00501.13EyRichard - QTH Maarssen JO22md - Info via www.NL13797.nl - WRLP -
  • Sun, 20 Oct 2019 07:16:17 +0000: NL1RFR>APWW10,,TCPIP*,qAC,EIFEL-CB:@081617h5207.74N/00501.13EyRichard - QTH Maarssen JO22md - Info via www.NL13797.nl - WRLP -
  • Sun, 20 Oct 2019 06:46:17 +0000: NL1RFR>APWW10,,TCPIP*,qAC,EIFEL-CB:@074617h5207.74N/00501.13EyRichard - QTH Maarssen JO22md - Info via www.NL13797.nl - WRLP -
  • Sun, 20 Oct 2019 06:16:17 +0000: NL1RFR>APWW10,,TCPIP*,qAC,EIFEL-CB:@071617h5207.74N/00501.13EyRichard - QTH Maarssen JO22md - Info via www.NL13797.nl - WRLP -
  • Sun, 20 Oct 2019 05:46:17 +0000: NL1RFR>APWW10,,TCPIP*,qAC,EIFEL-CB:@064617h5207.74N/00501.13EyRichard - QTH Maarssen JO22md - Info via www.NL13797.nl - WRLP -
  • Sun, 20 Oct 2019 05:16:17 +0000: NL1RFR>APWW10,,TCPIP*,qAC,EIFEL-CB:@061617h5207.74N/00501.13EyRichard - QTH Maarssen JO22md - Info via www.NL13797.nl - WRLP -
  • Sun, 20 Oct 2019 04:46:16 +0000: NL1RFR>APWW10,,TCPIP*,qAC,EIFEL-CB:@054616h5207.74N/00501.13EyRichard - QTH Maarssen JO22md - Info via www.NL13797.nl - WRLP -
  • Sun, 20 Oct 2019 04:16:17 +0000: NL1RFR>APWW10,,TCPIP*,qAC,EIFEL-CB:@051617h5207.74N/00501.13EyRichard - QTH Maarssen JO22md - Info via www.NL13797.nl - WRLP -
  • Sun, 20 Oct 2019 03:46:17 +0000: NL1RFR>APWW10,,TCPIP*,qAC,EIFEL-CB:@044617h5207.74N/00501.13EyRichard - QTH Maarssen JO22md - Info via www.NL13797.nl - WRLP -
  • Sun, 20 Oct 2019 03:16:17 +0000: NL1RFR>APWW10,,TCPIP*,qAC,EIFEL-CB:@041617h5207.74N/00501.13EyRichard - QTH Maarssen JO22md - Info via www.NL13797.nl - WRLP -
  • Sun, 20 Oct 2019 02:46:17 +0000: NL1RFR>APWW10,,TCPIP*,qAC,EIFEL-CB:@034617h5207.74N/00501.13EyRichard - QTH Maarssen JO22md - Info via www.NL13797.nl - WRLP -
  • Sun, 20 Oct 2019 02:16:17 +0000: NL1RFR>APWW10,,TCPIP*,qAC,EIFEL-CB:@031617h5207.74N/00501.13EyRichard - QTH Maarssen JO22md - Info via www.NL13797.nl - WRLP -
  • Sun, 20 Oct 2019 01:46:16 +0000: NL1RFR>APWW10,,TCPIP*,qAC,EIFEL-CB:@024616h5207.74N/00501.13EyRichard - QTH Maarssen JO22md - Info via www.NL13797.nl - WRLP -
  • Sun, 20 Oct 2019 01:16:17 +0000: NL1RFR>APWW10,,TCPIP*,qAC,EIFEL-CB:@021617h5207.74N/00501.13EyRichard - QTH Maarssen JO22md - Info via www.NL13797.nl - WRLP -
  • Sun, 20 Oct 2019 00:46:16 +0000: NL1RFR>APWW10,,TCPIP*,qAC,EIFEL-CB:@014616h5207.74N/00501.13EyRichard - QTH Maarssen JO22md - Info via www.NL13797.nl - WRLP -
  • Sat, 19 Oct 2019 23:46:16 +0000: NL1RFR>APWW10,,TCPIP*,qAC,EIFEL-CB:@004616h5207.74N/00501.13EyRichard - QTH Maarssen JO22md - Info via www.NL13797.nl - WRLP -
  • Sat, 19 Oct 2019 23:16:16 +0000: NL1RFR>APWW10,,TCPIP*,qAC,EIFEL-CB:@001616h5207.74N/00501.13EyRichard - QTH Maarssen JO22md - Info via www.NL13797.nl - WRLP -
  • Sat, 19 Oct 2019 22:06:45 +0000: NL1RFR>APWW10,,TCPIP*,qAC,EIFEL-CB:@230645h5207.74N/00501.13EyRichard - QTH Maarssen JO22md - Info via www.NL13797.nl - WRLP -
  • Sat, 19 Oct 2019 21:36:45 +0000: NL1RFR>APWW10,,TCPIP*,qAC,EIFEL-CB:@223645h5207.74N/00501.13EyRichard - QTH Maarssen JO22md - Info via www.NL13797.nl - WRLP -
  • Sat, 19 Oct 2019 21:06:45 +0000: NL1RFR>APWW10,,TCPIP*,qAC,EIFEL-CB:@220645h5207.74N/00501.13EyRichard - QTH Maarssen JO22md - Info via www.NL13797.nl - WRLP -
  • Sat, 19 Oct 2019 20:38:13 +0000: NL1RFR>APWW10,,TCPIP*,qAC,EIFEL-CB:@213813h5207.74N/00501.13EyRichard - QTH Maarssen JO22md - Info via www.NL13797.nl - WRLP -
  • Sat, 19 Oct 2019 20:08:13 +0000: NL1RFR>APWW10,,TCPIP*,qAC,EIFEL-CB:@210813h5207.74N/00501.13EyRichard - QTH Maarssen JO22md - Info via www.NL13797.nl - WRLP -
  • Sat, 19 Oct 2019 19:38:13 +0000: NL1RFR>APWW10,,TCPIP*,qAC,EIFEL-CB:@203813h5207.74N/00501.13EyRichard - QTH Maarssen JO22md - Info via www.NL13797.nl - WRLP -
  • Sat, 19 Oct 2019 19:08:13 +0000: NL1RFR>APWW10,,TCPIP*,qAC,EIFEL-CB:@200813h5207.74N/00501.13EyRichard - QTH Maarssen JO22md - Info via www.NL13797.nl - WRLP -
  • Sat, 19 Oct 2019 18:38:13 +0000: NL1RFR>APWW10,,TCPIP*,qAC,EIFEL-CB:@193813h5207.74N/00501.13EyRichard - QTH Maarssen JO22md - Info via www.NL13797.nl - WRLP -
  • Sat, 19 Oct 2019 18:08:13 +0000: NL1RFR>APWW10,,TCPIP*,qAC,EIFEL-CB:@190813h5207.74N/00501.13EyRichard - QTH Maarssen JO22md - Info via www.NL13797.nl - WRLP -
  • Sat, 19 Oct 2019 17:38:13 +0000: NL1RFR>APWW10,,TCPIP*,qAC,EIFEL-CB:@183813h5207.74N/00501.13EyRichard - QTH Maarssen JO22md - Info via www.NL13797.nl - WRLP -
  • Sat, 19 Oct 2019 17:08:13 +0000: NL1RFR>APWW10,,TCPIP*,qAC,EIFEL-CB:@180813h5207.74N/00501.13EyRichard - QTH Maarssen JO22md - Info via www.NL13797.nl - WRLP -
  • Sat, 19 Oct 2019 16:38:12 +0000: NL1RFR>APWW10,,TCPIP*,qAC,EIFEL-CB:@173812h5207.74N/00501.13EyRichard - QTH Maarssen JO22md - Info via www.NL13797.nl - WRLP -
  • Sat, 19 Oct 2019 16:08:13 +0000: NL1RFR>APWW10,,TCPIP*,qAC,EIFEL-CB:@170813h5207.74N/00501.13EyRichard - QTH Maarssen JO22md - Info via www.NL13797.nl - WRLP -
  • Sat, 19 Oct 2019 15:38:12 +0000: NL1RFR>APWW10,,TCPIP*,qAC,EIFEL-CB:@163812h5207.74N/00501.13EyRichard - QTH Maarssen JO22md - Info via www.NL13797.nl - WRLP -
  • Sat, 19 Oct 2019 15:08:12 +0000: NL1RFR>APWW10,,TCPIP*,qAC,EIFEL-CB:@160812h5207.74N/00501.13EyRichard - QTH Maarssen JO22md - Info via www.NL13797.nl - WRLP -
  • Sat, 19 Oct 2019 14:38:12 +0000: NL1RFR>APWW10,,TCPIP*,qAC,EIFEL-CB:@153812h5207.74N/00501.13EyRichard - QTH Maarssen JO22md - Info via www.NL13797.nl - WRLP -
  • Sat, 19 Oct 2019 14:08:12 +0000: NL1RFR>APWW10,,TCPIP*,qAC,EIFEL-CB:@150812h5207.74N/00501.13EyRichard - QTH Maarssen JO22md - Info via www.NL13797.nl - WRLP -
  • Sat, 19 Oct 2019 13:38:12 +0000: NL1RFR>APWW10,,TCPIP*,qAC,EIFEL-CB:@143812h5207.74N/00501.13EyRichard - QTH Maarssen JO22md - Info via www.NL13797.nl - WRLP -
  • Sat, 19 Oct 2019 13:08:12 +0000: NL1RFR>APWW10,,TCPIP*,qAC,EIFEL-CB:@140812h5207.74N/00501.13EyRichard - QTH Maarssen JO22md - Info via www.NL13797.nl - WRLP -
  • Sat, 19 Oct 2019 12:38:12 +0000: NL1RFR>APWW10,,TCPIP*,qAC,EIFEL-CB:@133812h5207.74N/00501.13EyRichard - QTH Maarssen JO22md - Info via www.NL13797.nl - WRLP -
  • Sat, 19 Oct 2019 10:31:52 +0000: NL1RFR>APWW10,,TCPIP*,qAC,EIFEL-CB:@113152h5207.74N/00501.13EyRichard - QTH Maarssen JO22md - Info via www.NL13797.nl - WRLP -
  • Sat, 19 Oct 2019 10:18:36 +0000: NL1RFR>APWW10,,TCPIP*,qAC,EIFEL-CB:@111836h5207.74N/00501.13EyRichard - QTH Maarssen JO22md - Info via www.NL13797.nl - WRLP -
  • Sat, 19 Oct 2019 09:48:36 +0000: NL1RFR>APWW10,,TCPIP*,qAC,EIFEL-CB:@104836h5207.74N/00501.13EyRichard - QTH Maarssen JO22md - Info via www.NL13797.nl - WRLP -